Time;durP1;ratioP1;P1;durP2;ratioP2;P2;SDS_P1;SDS_P2;PMS_P1;PMS_P2;Temp;Humidity;BMP_temperature;BMP_pressure;BME280_temperature;BME280_humidity;BME280_pressure;Samples;Min_cycle;Max_cycle;Signal;HPM_P1;HPM_P2
2022/07/14 04:40:48;;;;;;;14.10;13.40;;;18.50;99.90;;;;;;5547487;23;20541;-73
2022/07/14 04:43:14;;;;;;;15.57;14.57;;;18.50;99.90;;;;;;4969614;28;21255;-73
2022/07/14 04:45:41;;;;;;;14.97;14.10;;;18.50;99.90;;;;;;4954329;28;20456;-72
2022/07/14 04:48:08;;;;;;;15.43;14.63;;;18.60;99.90;;;;;;4953681;29;20547;-70
2022/07/14 04:53:18;;;;;;;13.80;13.20;;;19.50;99.90;;;;;;4953381;29;20511;-71
2022/07/14 04:55:46;;;;;;;13.33;12.53;;;20.00;99.90;;;;;;4953594;29;20484;-72
2022/07/14 04:58:13;;;;;;;13.73;13.10;;;20.30;99.90;;;;;;4953521;29;20527;-72
2022/07/14 05:00:40;;;;;;;13.63;12.97;;;20.50;99.90;;;;;;4953375;29;20457;-72
2022/07/14 05:03:06;;;;;;;15.40;14.27;;;20.80;99.90;;;;;;4953790;29;20803;-73
2022/07/14 05:05:33;;;;;;;14.40;13.40;;;21.20;99.90;;;;;;4953538;29;20789;-73
2022/07/14 05:08:00;;;;;;;16.60;15.30;;;21.50;99.90;;;;;;4953113;29;20491;-73
2022/07/14 05:10:27;;;;;;;15.50;14.20;;;21.80;99.90;;;;;;4953157;29;20453;-72
2022/07/14 05:12:55;;;;;;;14.97;14.03;;;22.10;99.90;;;;;;4953448;29;20464;-72
2022/07/14 05:15:21;;;;;;;16.20;14.90;;;22.30;99.90;;;;;;4953346;29;20519;-72
2022/07/14 05:17:48;;;;;;;16.20;15.33;;;22.10;99.90;;;;;;4953148;29;20455;-73
2022/07/14 05:20:15;;;;;;;15.40;14.43;;;22.00;99.90;;;;;;4952840;29;20946;-74
2022/07/14 05:22:43;;;;;;;15.77;14.67;;;22.10;99.90;;;;;;4953035;28;20468;-74
2022/07/14 05:25:12;;;;;;;15.33;14.43;;;22.60;99.90;;;;;;4953045;29;20826;-73
2022/07/14 05:27:39;;;;;;;16.53;15.30;;;22.90;99.90;;;;;;4953104;29;20520;-73
2022/07/14 05:30:10;;;;;;;16.37;15.10;;;23.20;99.90;;;;;;4953229;29;20449;-73
2022/07/14 05:32:37;;;;;;;16.40;15.27;;;23.30;99.90;;;;;;4952891;29;20453;-73
2022/07/14 05:35:05;;;;;;;16.13;15.23;;;23.40;99.90;;;;;;4952799;29;20460;-72
2022/07/14 05:37:32;;;;;;;16.30;15.03;;;23.40;99.90;;;;;;4952820;29;20461;-72
2022/07/14 05:39:59;;;;;;;16.83;15.73;;;23.40;99.90;;;;;;4952426;29;20481;-71
2022/07/14 05:42:26;;;;;;;15.60;14.50;;;23.30;99.90;;;;;;4952871;29;20461;-71
2022/07/14 05:44:52;;;;;;;16.80;15.07;;;23.30;99.90;;;;;;4953099;29;20872;-72
2022/07/14 05:47:20;;;;;;;15.80;14.60;;;23.60;99.90;;;;;;4952617;29;20452;-72
2022/07/14 05:52:34;;;;;;;17.10;16.00;;;23.90;99.90;;;;;;4948741;29;20460;-71
2022/07/14 05:55:01;;;;;;;17.00;16.00;;;24.10;99.90;;;;;;4947436;29;20486;-71
2022/07/14 05:57:28;;;;;;;17.83;16.50;;;24.20;99.20;;;;;;4952120;29;20894;-71
2022/07/14 05:59:55;;;;;;;18.93;16.10;;;24.50;98.80;;;;;;4952293;29;20925;-72
2022/07/14 06:02:23;;;;;;;16.80;15.70;;;25.00;97.40;;;;;;4952173;29;20452;-71
2022/07/14 06:04:50;;;;;;;17.43;15.93;;;25.00;97.00;;;;;;4952254;29;20821;-71
2022/07/14 06:07:16;;;;;;;16.00;15.00;;;24.70;97.00;;;;;;4951966;29;20957;-71
2022/07/14 06:09:43;;;;;;;15.60;14.60;;;24.60;97.00;;;;;;4951904;29;20861;-71
2022/07/14 06:12:11;;;;;;;16.83;15.47;;;24.70;96.50;;;;;;4952125;29;20453;-71
2022/07/14 06:14:37;;;;;;;16.83;15.33;;;24.80;96.40;;;;;;4952194;29;20457;-72
2022/07/14 06:17:04;;;;;;;16.90;15.60;;;25.00;95.90;;;;;;4951988;29;20456;-72
2022/07/14 06:19:32;;;;;;;16.70;15.70;;;25.40;94.70;;;;;;4951805;29;20445;-72
2022/07/14 06:21:59;;;;;;;15.53;14.67;;;25.60;94.70;;;;;;4951773;29;20452;-72
2022/07/14 06:24:25;;;;;;;15.77;14.77;;;25.90;93.50;;;;;;4951841;29;20457;-72
2022/07/14 06:26:52;;;;;;;14.47;13.87;;;26.20;92.60;;;;;;4951966;29;20451;-71
2022/07/14 06:29:19;;;;;;;15.13;13.93;;;26.20;91.40;;;;;;4951810;29;20521;-71
2022/07/14 06:31:45;;;;;;;14.20;13.40;;;26.10;91.10;;;;;;4951739;29;20654;-72
2022/07/14 06:34:12;;;;;;;14.50;13.40;;;26.60;90.40;;;;;;4951357;28;20468;-72
2022/07/14 06:36:40;;;;;;;14.70;13.80;;;26.80;89.80;;;;;;4952198;29;20875;-71
2022/07/14 06:39:07;;;;;;;13.60;13.10;;;26.50;89.40;;;;;;4955843;29;20469;-71
2022/07/14 06:41:34;;;;;;;14.07;13.20;;;26.20;90.40;;;;;;4955487;29;20480;-71
2022/07/14 06:44:00;;;;;;;14.37;13.30;;;26.10;90.50;;;;;;4955597;29;20476;-72
2022/07/14 06:46:27;;;;;;;14.13;13.33;;;26.30;90.50;;;;;;4955060;29;20958;-72
2022/07/14 06:48:54;;;;;;;13.53;12.90;;;26.10;90.70;;;;;;4955491;29;20848;-72
2022/07/14 06:51:21;;;;;;;13.77;13.17;;;26.20;90.70;;;;;;4955380;29;20456;-72
2022/07/14 06:53:49;;;;;;;14.53;13.83;;;26.40;90.20;;;;;;4955210;29;20970;-72
2022/07/14 06:56:16;;;;;;;14.10;13.20;;;26.40;89.70;;;;;;4955249;29;20808;-72
2022/07/14 06:58:42;;;;;;;14.10;13.40;;;26.60;89.30;;;;;;4955416;29;20452;-72
2022/07/14 07:01:09;;;;;;;13.47;12.67;;;26.80;89.00;;;;;;4955257;29;20460;-73
2022/07/14 07:03:36;;;;;;;14.07;13.27;;;27.20;88.00;;;;;;4955319;29;20454;-73
2022/07/14 07:08:47;;;;;;;13.70;13.20;;;27.50;87.50;;;;;;4954781;29;20809;-73
2022/07/14 07:11:15;;;;;;;14.13;12.93;;;27.90;86.80;;;;;;4954750;29;20818;-73
2022/07/14 07:13:42;;;;;;;14.37;13.77;;;28.70;83.10;;;;;;4954732;29;20456;-73
2022/07/14 07:16:10;;;;;;;13.60;12.90;;;29.00;81.00;;;;;;4954827;29;20456;-74
2022/07/14 07:18:37;;;;;;;13.77;13.07;;;28.80;82.00;;;;;;4954955;29;20465;-73
2022/07/14 07:21:06;;;;;;;13.80;13.20;;;29.00;79.40;;;;;;4954814;29;20455;-74
2022/07/14 07:23:32;;;;;;;14.87;13.63;;;29.00;79.60;;;;;;4954690;29;20483;-73
2022/07/14 07:25:59;;;;;;;14.47;13.83;;;28.80;80.50;;;;;;4954654;29;20938;-73
2022/07/14 07:28:27;;;;;;;14.40;13.70;;;29.00;80.70;;;;;;4954740;29;20528;-73
2022/07/14 07:30:54;;;;;;;15.20;14.00;;;29.10;80.60;;;;;;4954973;29;20456;-73
2022/07/14 07:33:21;;;;;;;14.30;13.70;;;29.40;79.40;;;;;;4954681;29;20456;-74
2022/07/14 07:35:47;;;;;;;14.20;13.60;;;29.70;78.40;;;;;;4954597;29;20456;-74
2022/07/14 07:38:14;;;;;;;14.37;13.67;;;29.20;80.00;;;;;;4954537;29;20464;-73
2022/07/14 07:40:41;;;;;;;14.80;13.80;;;29.10;80.70;;;;;;4954454;29;20978;-73
2022/07/14 07:43:07;;;;;;;14.20;13.50;;;28.90;80.70;;;;;;4954863;29;20480;-73
2022/07/14 07:45:35;;;;;;;14.60;13.70;;;28.90;79.90;;;;;;4954231;28;20519;-74
2022/07/14 07:48:03;;;;;;;14.23;13.23;;;28.70;81.40;;;;;;4953505;29;20863;-73
2022/07/14 07:50:30;;;;;;;13.33;12.70;;;28.90;81.20;;;;;;4954189;29;20492;-73
2022/07/14 07:52:56;;;;;;;15.10;14.10;;;28.90;80.00;;;;;;4954268;29;20461;-73
2022/07/14 07:55:23;;;;;;;15.57;14.30;;;29.40;78.80;;;;;;4954411;29;20484;-73
2022/07/14 07:57:50;;;;;;;14.97;14.13;;;30.40;76.50;;;;;;4954220;29;20955;-73
2022/07/14 08:00:16;;;;;;;13.90;13.30;;;30.50;75.00;;;;;;4954089;29;20703;-73
2022/07/14 08:02:48;;;;;;;14.90;14.00;;;31.10;74.00;;;;;;4954075;29;20453;-73
2022/07/14 08:05:16;;;;;;;15.50;14.70;;;31.40;73.30;;;;;;4954312;29;20460;-74
2022/07/14 08:07:42;;;;;;;15.50;14.80;;;31.70;71.60;;;;;;4954037;29;20463;-73
2022/07/14 08:10:09;;;;;;;16.10;14.83;;;31.80;71.30;;;;;;4953651;29;20548;-74
2022/07/14 08:12:36;;;;;;;15.17;14.47;;;31.60;71.30;;;;;;4954153;29;20516;-74
2022/07/14 08:15:03;;;;;;;16.03;14.93;;;31.90;70.60;;;;;;4953880;29;20449;-74
2022/07/14 08:17:29;;;;;;;15.10;14.50;;;32.80;68.70;;;;;;4953962;29;20508;-74
2022/07/14 08:19:57;;;;;;;17.10;15.80;;;33.00;66.30;;;;;;4953991;29;20958;-74
2022/07/14 08:22:25;;;;;;;14.80;14.00;;;32.60;68.10;;;;;;4954000;29;20457;-74
2022/07/14 08:24:52;;;;;;;15.03;14.40;;;32.80;67.30;;;;;;4953810;29;20461;-74
2022/07/14 08:27:19;;;;;;;15.57;14.97;;;32.60;67.10;;;;;;4953591;29;20452;-74
2022/07/14 08:29:46;;;;;;;15.20;14.60;;;32.40;67.80;;;;;;4953459;29;20499;-73
2022/07/14 08:32:13;;;;;;;15.63;14.77;;;31.80;68.50;;;;;;4953433;29;20951;-74
2022/07/14 08:34:39;;;;;;;14.70;14.10;;;31.70;69.40;;;;;;4953785;29;20522;-74
2022/07/14 08:37:07;;;;;;;14.20;13.60;;;31.80;69.10;;;;;;4953748;29;20934;-74
2022/07/14 08:39:34;;;;;;;14.53;13.40;;;31.90;68.50;;;;;;4953325;29;20464;-74
2022/07/14 08:42:01;;;;;;;17.47;15.80;;;32.50;68.10;;;;;;4953314;29;20484;-74
2022/07/14 08:44:29;;;;;;;15.13;14.13;;;32.80;66.10;;;;;;4953557;29;20531;-74
2022/07/14 08:46:56;;;;;;;15.13;14.33;;;32.60;66.30;;;;;;4953195;29;20458;-73
2022/07/14 08:49:23;;;;;;;16.50;15.30;;;32.20;67.40;;;;;;4951566;29;21112;-73
2022/07/14 08:51:51;;;;;;;14.00;13.50;;;31.90;67.80;;;;;;4953096;29;20461;-74
2022/07/14 08:54:19;;;;;;;16.60;15.10;;;32.30;67.50;;;;;;4953046;29;20823;-74
2022/07/14 08:56:46;;;;;;;15.10;14.40;;;33.00;65.00;;;;;;4953045;29;20503;-73
2022/07/14 08:59:13;;;;;;;15.67;14.97;;;33.00;65.20;;;;;;4952780;28;20464;-73
2022/07/14 09:01:40;;;;;;;15.77;14.73;;;32.80;65.30;;;;;;4952879;29;20455;-74
2022/07/14 09:04:06;;;;;;;16.37;15.37;;;33.10;63.80;;;;;;4952781;29;20456;-74
2022/07/14 09:06:51;;;;;;;16.60;15.70;;;33.70;62.80;;;;;;4952282;29;20515;-74
2022/07/14 09:09:23;;;;;;;17.03;16.20;;;33.70;63.10;;;;;;4952225;29;20599;-73
2022/07/14 09:11:54;;;;;;;17.30;15.93;;;34.20;61.50;;;;;;4952581;29;20488;-74
2022/07/14 09:14:22;;;;;;;15.13;14.33;;;34.20;60.80;;;;;;4952605;29;20449;-74
2022/07/14 09:16:48;;;;;;;15.73;15.13;;;34.00;60.60;;;;;;4952522;29;20459;-74
2022/07/14 09:19:18;;;;;;;16.00;15.10;;;34.10;59.40;;;;;;4952308;29;20828;-74
2022/07/14 09:21:47;;;;;;;16.10;15.30;;;34.50;58.20;;;;;;4952433;29;20470;-74
2022/07/14 09:24:15;;;;;;;15.83;15.17;;;34.90;57.10;;;;;;4952280;29;20946;-74
2022/07/14 09:26:44;;;;;;;16.43;15.73;;;35.60;56.20;;;;;;4952413;29;20461;-74
2022/07/14 09:29:17;;;;;;;15.67;15.07;;;36.20;53.60;;;;;;4952417;29;20488;-74
2022/07/14 09:31:45;;;;;;;15.73;15.13;;;36.70;50.40;;;;;;4952411;29;20514;-74
2022/07/14 09:34:25;;;;;;;15.63;14.90;;;37.60;48.10;;;;;;4952300;29;20456;-74
2022/07/14 09:36:52;;;;;;;15.70;14.90;;;37.90;47.20;;;;;;4952425;29;20838;-74
2022/07/14 09:39:19;;;;;;;17.03;16.13;;;38.70;44.50;;;;;;4952071;29;20874;-74
2022/07/14 09:41:53;;;;;;;15.00;14.50;;;39.20;43.10;;;;;;4952026;29;20492;-74
2022/07/14 09:44:21;;;;;;;17.23;16.50;;;39.20;41.70;;;;;;4952150;29;20823;-75
2022/07/14 09:46:50;;;;;;;16.77;15.87;;;39.30;41.30;;;;;;4951991;29;20957;-75
2022/07/14 09:49:19;;;;;;;16.00;15.40;;;39.30;41.50;;;;;;4952012;29;20527;-74
2022/07/14 09:51:58;;;;;;;16.20;15.30;;;39.80;37.10;;;;;;4952093;29;21007;-74
2022/07/14 09:54:49;;;;;;;17.10;16.30;;;40.30;37.70;;;;;;4951837;29;20919;-75
2022/07/14 09:57:23;;;;;;;17.40;16.60;;;40.20;37.90;;;;;;4941690;29;20460;-74
2022/07/14 09:59:53;;;;;;;17.00;16.30;;;40.80;36.60;;;;;;4952135;29;20453;-75
2022/07/14 10:02:22;;;;;;;17.80;16.87;;;40.50;35.20;;;;;;4951806;29;20460;-74
2022/07/14 10:04:49;;;;;;;17.80;17.20;;;39.70;35.50;;;;;;4951583;29;20966;-75
2022/07/14 10:07:18;;;;;;;16.70;16.20;;;40.10;34.80;;;;;;4951595;29;20451;-75
2022/07/14 10:09:50;;;;;;;16.23;15.63;;;40.10;36.40;;;;;;4951152;29;20829;-74
2022/07/14 10:12:19;;;;;;;16.63;15.80;;;39.80;36.10;;;;;;4951835;29;20495;-74
2022/07/14 10:14:46;;;;;;;16.97;16.17;;;39.50;35.90;;;;;;4951785;29;20903;-74
2022/07/14 10:17:15;;;;;;;17.20;16.50;;;40.00;34.60;;;;;;4951684;29;20954;-73
2022/07/14 10:19:42;;;;;;;18.07;17.17;;;39.90;34.00;;;;;;4951409;29;20459;-73
2022/07/14 10:22:10;;;;;;;16.80;16.00;;;41.30;32.50;;;;;;4952080;29;20456;-74
2022/07/14 10:24:39;;;;;;;17.17;16.57;;;42.40;29.70;;;;;;4951867;29;20456;-74
2022/07/14 10:27:07;;;;;;;16.73;16.00;;;42.50;28.90;;;;;;4951888;29;20460;-74
2022/07/14 10:29:35;;;;;;;16.90;16.00;;;41.50;29.00;;;;;;4951704;29;20554;-73
2022/07/14 10:32:19;;;;;;;16.77;15.87;;;40.10;30.00;;;;;;4951653;29;20853;-73
2022/07/14 10:34:54;;;;;;;15.73;15.23;;;39.20;31.00;;;;;;4952002;29;20658;-73
2022/07/14 10:37:28;;;;;;;15.93;15.40;;;38.70;31.20;;;;;;4951918;29;20452;-75
2022/07/14 10:40:06;;;;;;;16.87;16.27;;;38.90;31.20;;;;;;4951645;29;21001;-73
2022/07/14 10:42:43;;;;;;;17.10;16.50;;;40.10;30.20;;;;;;4951544;29;20456;-74
2022/07/14 10:45:11;;;;;;;16.90;16.10;;;41.70;29.20;;;;;;4951871;29;20828;-74
2022/07/14 10:47:48;;;;;;;18.03;17.37;;;42.50;28.30;;;;;;4951793;29;20793;-74
2022/07/14 10:50:18;;;;;;;17.30;16.40;;;43.80;27.40;;;;;;4951427;29;20483;-73
2022/07/14 10:53:00;;;;;;;16.17;15.57;;;43.40;27.40;;;;;;4951584;29;20460;-73
2022/07/14 10:55:35;;;;;;;17.53;16.77;;;43.00;26.90;;;;;;4951733;29;20562;-73
2022/07/14 10:58:28;;;;;;;18.30;17.50;;;42.60;26.90;;;;;;4951577;29;20892;-73
2022/07/14 11:00:58;;;;;;;16.60;16.00;;;41.10;27.70;;;;;;4951558;29;20994;-73
2022/07/14 11:03:27;;;;;;;17.33;16.47;;;40.90;27.80;;;;;;4951909;29;20483;-73
2022/07/14 11:06:22;;;;;;;16.20;15.60;;;41.80;27.60;;;;;;4951950;29;20459;-74
2022/07/14 11:09:38;;;;;;;18.00;17.37;;;42.90;26.60;;;;;;4951546;29;20479;-74
2022/07/14 11:12:10;;;;;;;17.30;16.50;;;43.50;25.80;;;;;;4951690;29;20866;-74
2022/07/14 11:14:41;;;;;;;17.37;16.67;;;43.50;26.00;;;;;;4951713;29;20460;-74
2022/07/14 11:17:31;;;;;;;19.10;18.10;;;43.60;25.70;;;;;;4951783;29;20456;-75
2022/07/14 11:19:58;;;;;;;16.87;16.17;;;42.80;26.10;;;;;;4951174;29;20447;-74
2022/07/14 11:22:25;;;;;;;17.20;16.40;;;42.80;25.70;;;;;;4954657;28;20459;-73
2022/07/14 11:24:56;;;;;;;16.97;16.37;;;42.80;25.80;;;;;;4954982;29;20452;-75
2022/07/14 11:27:32;;;;;;;18.77;17.40;;;42.80;25.30;;;;;;4954932;29;20467;-74
2022/07/14 11:30:16;;;;;;;17.17;16.57;;;42.60;25.70;;;;;;4954706;29;20498;-74
2022/07/14 11:32:44;;;;;;;17.10;16.50;;;42.40;25.30;;;;;;4954729;29;20471;-75
2022/07/14 11:38:00;;;;;;;18.00;16.73;;;42.90;25.20;;;;;;4954938;29;20491;-74
2022/07/14 11:40:44;;;;;;;17.27;16.67;;;43.50;25.30;;;;;;4954268;29;20804;-75
2022/07/14 11:43:53;;;;;;;16.83;16.13;;;42.50;24.90;;;;;;4954880;29;20546;-74
2022/07/14 11:46:21;;;;;;;16.63;15.83;;;42.80;25.70;;;;;;4954446;29;20448;-74
2022/07/14 11:48:51;;;;;;;16.40;15.80;;;42.90;25.90;;;;;;4954488;29;20455;-74
2022/07/14 11:51:23;;;;;;;17.30;16.40;;;43.40;25.80;;;;;;4954184;29;20579;-74
2022/07/14 11:53:56;;;;;;;17.03;16.03;;;42.90;25.70;;;;;;4954269;29;20850;-74
2022/07/14 11:56:24;;;;;;;16.80;16.20;;;42.70;26.00;;;;;;4954592;29;20566;-74
2022/07/14 11:58:52;;;;;;;18.00;17.03;;;42.90;26.00;;;;;;4954439;29;20888;-74
2022/07/14 12:01:20;;;;;;;17.50;16.60;;;42.30;26.00;;;;;;4954168;29;20444;-75
2022/07/14 12:03:49;;;;;;;17.77;16.60;;;41.30;27.00;;;;;;4954074;29;20649;-75
2022/07/14 12:06:16;;;;;;;18.53;17.30;;;42.00;26.90;;;;;;4953983;29;20538;-75
2022/07/14 12:08:44;;;;;;;17.00;16.30;;;41.50;27.40;;;;;;4953625;29;20487;-75
2022/07/14 12:11:14;;;;;;;16.20;15.50;;;40.70;28.20;;;;;;4953991;29;20502;-75
2022/07/14 12:13:53;;;;;;;16.77;15.50;;;40.90;28.80;;;;;;4954493;29;20459;-74
2022/07/14 12:16:21;;;;;;;16.67;15.63;;;40.50;28.80;;;;;;4954209;29;20547;-75
2022/07/14 12:18:52;;;;;;;16.70;15.93;;;40.60;28.80;;;;;;4953860;29;20459;-75
2022/07/14 12:21:32;;;;;;;16.37;15.73;;;41.20;28.20;;;;;;4953936;29;20880;-75
2022/07/14 12:23:58;;;;;;;16.97;16.10;;;41.50;28.20;;;;;;4953778;29;20463;-75
2022/07/14 12:26:26;;;;;;;20.10;18.90;;;41.90;28.20;;;;;;4953864;29;20452;-75
2022/07/14 12:28:55;;;;;;;16.47;15.83;;;40.70;28.90;;;;;;4953981;29;20456;-75
2022/07/14 12:31:23;;;;;;;15.90;14.77;;;40.90;28.40;;;;;;4953840;29;20834;-75
2022/07/14 12:33:53;;;;;;;15.50;14.90;;;40.60;28.70;;;;;;4952950;28;20456;-75
2022/07/14 12:36:23;;;;;;;17.30;16.30;;;40.10;28.60;;;;;;4953698;29;21018;-75
2022/07/14 12:38:50;;;;;;;18.17;17.27;;;39.80;29.30;;;;;;4953381;29;20535;-75
2022/07/14 12:41:24;;;;;;;15.53;14.93;;;38.90;29.20;;;;;;4953302;29;20480;-75
2022/07/14 12:43:51;;;;;;;16.90;16.20;;;39.00;29.00;;;;;;4953497;29;20780;-75
2022/07/14 12:46:20;;;;;;;17.03;16.33;;;39.10;28.90;;;;;;4953322;29;20537;-75
2022/07/14 12:49:00;;;;;;;17.73;16.70;;;39.40;28.80;;;;;;4953169;29;20551;-74
2022/07/14 12:51:28;;;;;;;15.70;15.10;;;39.10;28.90;;;;;;4953282;29;20551;-75
2022/07/14 12:54:00;;;;;;;16.60;15.80;;;38.60;29.40;;;;;;4953275;29;20448;-75
2022/07/14 12:56:28;;;;;;;16.23;15.53;;;38.40;29.40;;;;;;4953376;29;20452;-74
2022/07/14 12:58:56;;;;;;;16.37;15.60;;;38.00;29.50;;;;;;4953490;29;20467;-75
2022/07/14 13:01:24;;;;;;;16.60;15.80;;;37.60;29.50;;;;;;4953264;29;20459;-74
2022/07/14 13:03:56;;;;;;;16.07;15.37;;;37.20;29.60;;;;;;4953005;29;20488;-75
2022/07/14 13:06:25;;;;;;;16.90;16.00;;;37.20;29.80;;;;;;4951216;29;20456;-74
2022/07/14 13:08:52;;;;;;;16.03;15.33;;;37.40;30.00;;;;;;4953097;29;20457;-74
2022/07/14 13:11:19;;;;;;;15.73;14.77;;;37.40;29.50;;;;;;4952988;29;20868;-74
2022/07/14 13:13:50;;;;;;;16.50;15.80;;;37.50;30.00;;;;;;4952740;29;20456;-74
2022/07/14 13:16:23;;;;;;;15.57;14.97;;;37.20;29.80;;;;;;4952659;29;20849;-75
2022/07/14 13:19:11;;;;;;;16.20;15.27;;;37.10;30.20;;;;;;4952722;29;20886;-74
2022/07/14 13:21:57;;;;;;;15.10;14.50;;;37.80;30.00;;;;;;4953150;29;20448;-75
2022/07/14 13:24:26;;;;;;;16.80;16.00;;;38.40;28.80;;;;;;4952997;29;20464;-75
2022/07/14 13:27:15;;;;;;;17.57;16.50;;;38.00;28.80;;;;;;4966079;28;20971;-75
2022/07/14 13:29:43;;;;;;;15.93;15.13;;;37.70;29.20;;;;;;4959043;28;20962;-74
2022/07/14 13:32:11;;;;;;;14.63;14.03;;;37.60;29.80;;;;;;4972090;28;20487;-74
2022/07/14 13:34:39;;;;;;;15.50;14.80;;;36.80;31.30;;;;;;4971835;28;20463;-75
2022/07/14 13:37:09;;;;;;;14.77;14.17;;;36.60;32.10;;;;;;4971019;28;20511;-75
2022/07/14 13:39:36;;;;;;;15.40;14.60;;;36.50;32.50;;;;;;4971823;28;20486;-74
2022/07/14 13:42:04;;;;;;;16.00;14.93;;;36.30;32.40;;;;;;4971903;28;20993;-75
2022/07/14 13:44:31;;;;;;;15.70;15.00;;;36.30;32.40;;;;;;4957036;28;21210;-74
2022/07/14 13:46:59;;;;;;;15.23;14.63;;;35.80;32.00;;;;;;4968355;28;20585;-74
2022/07/14 13:49:26;;;;;;;15.20;14.57;;;35.80;32.70;;;;;;4971980;28;20495;-74
2022/07/14 13:52:10;;;;;;;14.00;13.20;;;35.90;32.20;;;;;;4972291;28;20543;-74
2022/07/14 13:54:38;;;;;;;14.90;14.40;;;35.70;32.40;;;;;;4971972;28;20447;-75
2022/07/14 13:57:06;;;;;;;15.03;14.33;;;35.70;32.50;;;;;;4972023;28;20460;-74
2022/07/14 13:59:33;;;;;;;14.47;13.57;;;35.50;32.50;;;;;;4971884;28;20506;-74
2022/07/14 14:02:00;;;;;;;15.73;14.80;;;35.90;32.80;;;;;;4954272;28;20514;-74
2022/07/14 14:04:26;;;;;;;15.63;14.87;;;36.40;32.30;;;;;;4971441;28;20455;-75
2022/07/14 14:06:53;;;;;;;15.30;14.70;;;37.40;31.00;;;;;;4972028;28;20972;-75
2022/07/14 14:09:22;;;;;;;13.90;13.40;;;37.80;30.90;;;;;;4971931;28;20506;-74
2022/07/14 14:11:50;;;;;;;14.27;13.60;;;37.60;30.70;;;;;;4971883;28;20491;-74
2022/07/14 14:14:18;;;;;;;14.63;13.93;;;37.00;31.40;;;;;;4971409;28;20493;-75
2022/07/14 14:16:45;;;;;;;15.40;14.70;;;36.50;32.10;;;;;;4971876;28;20464;-74
2022/07/14 14:19:11;;;;;;;15.17;14.57;;;36.40;32.70;;;;;;4969418;28;20459;-75
2022/07/14 14:21:38;;;;;;;15.43;14.50;;;36.30;32.80;;;;;;4971404;28;20452;-75
2022/07/14 14:24:08;;;;;;;15.40;14.70;;;36.10;32.40;;;;;;4971151;28;20683;-75
2022/07/14 14:26:35;;;;;;;15.30;14.50;;;35.90;33.00;;;;;;4971613;28;20531;-74
2022/07/14 14:29:03;;;;;;;14.43;13.90;;;36.10;33.60;;;;;;4971717;28;20447;-75
2022/07/14 14:31:30;;;;;;;15.73;15.03;;;36.10;33.60;;;;;;4971424;28;20491;-75
2022/07/14 14:33:56;;;;;;;14.90;14.40;;;36.80;32.40;;;;;;4971587;28;20451;-75
2022/07/14 14:36:23;;;;;;;16.30;15.30;;;37.70;32.10;;;;;;4971246;28;20456;-75
2022/07/14 14:38:50;;;;;;;16.10;15.13;;;38.00;31.50;;;;;;4971260;28;20476;-74
2022/07/14 14:41:16;;;;;;;16.13;15.43;;;38.30;31.10;;;;;;4970889;28;20544;-75
2022/07/14 14:43:43;;;;;;;16.10;15.50;;;37.80;31.60;;;;;;4971124;28;20530;-74
2022/07/14 14:46:11;;;;;;;15.73;15.13;;;37.60;31.80;;;;;;4971055;28;20456;-74
2022/07/14 14:48:39;;;;;;;15.80;15.20;;;36.50;32.50;;;;;;4971388;28;20452;-75
2022/07/14 14:51:06;;;;;;;16.33;15.50;;;36.70;33.20;;;;;;4970914;28;20887;-74
2022/07/14 14:53:32;;;;;;;12.60;12.20;;;37.00;33.30;;;;;;4971320;28;20456;-75
2022/07/14 14:55:59;;;;;;;14.40;13.90;;;36.60;33.20;;;;;;4972397;28;20447;-74
2022/07/14 14:58:26;;;;;;;15.63;14.83;;;36.80;33.10;;;;;;4974704;28;20455;-73
2022/07/14 15:00:52;;;;;;;15.10;14.40;;;37.00;33.60;;;;;;4975068;28;20451;-74
2022/07/14 15:03:21;;;;;;;14.73;14.23;;;37.00;33.40;;;;;;4974593;28;20462;-74
2022/07/14 15:05:47;;;;;;;15.20;14.50;;;36.70;33.50;;;;;;4972942;28;20459;-75
2022/07/14 15:08:14;;;;;;;14.70;14.10;;;36.50;34.30;;;;;;4972847;28;20451;-75
2022/07/14 15:10:41;;;;;;;15.23;14.70;;;36.30;34.20;;;;;;4974209;28;21001;-74
2022/07/14 15:13:07;;;;;;;14.43;13.80;;;36.40;34.10;;;;;;4974817;28;20455;-75
2022/07/14 15:15:35;;;;;;;15.60;14.90;;;36.10;34.50;;;;;;4974594;28;20514;-74
2022/07/14 15:18:01;;;;;;;14.97;14.17;;;35.60;35.10;;;;;;4974551;28;20452;-75
2022/07/14 15:20:30;;;;;;;14.37;13.67;;;35.00;35.80;;;;;;4974903;28;20502;-74
2022/07/14 15:22:56;;;;;;;14.70;14.10;;;35.00;36.50;;;;;;4974670;28;20448;-74
2022/07/14 15:25:23;;;;;;;15.27;14.27;;;35.10;36.70;;;;;;4974833;28;20451;-74
2022/07/14 15:27:50;;;;;;;15.70;15.00;;;34.80;36.70;;;;;;4974650;28;20451;-75
2022/07/14 15:30:17;;;;;;;15.00;14.40;;;34.80;37.30;;;;;;4967247;28;20567;-75
2022/07/14 15:32:44;;;;;;;14.80;14.03;;;34.60;37.60;;;;;;4991129;28;20483;-74
2022/07/14 15:35:11;;;;;;;14.60;14.00;;;34.30;38.20;;;;;;4974501;28;20862;-74
2022/07/14 15:37:39;;;;;;;15.37;14.40;;;34.20;38.80;;;;;;4972885;28;20455;-74
2022/07/14 15:42:52;;;;;;;13.57;13.07;;;33.70;40.90;;;;;;4974725;28;20455;-74
2022/07/14 15:45:19;;;;;;;14.83;14.03;;;33.50;41.90;;;;;;4974211;28;20527;-74
2022/07/14 15:47:46;;;;;;;14.63;13.70;;;33.60;42.80;;;;;;4974197;28;20648;-75
2022/07/14 15:50:12;;;;;;;14.60;13.77;;;33.90;42.90;;;;;;4974309;28;21028;-74
2022/07/14 15:52:41;;;;;;;17.93;16.93;;;34.00;42.00;;;;;;4974201;28;20484;-74
2022/07/14 15:55:09;;;;;;;15.50;14.83;;;34.20;41.20;;;;;;4974290;28;21008;-74
2022/07/14 15:57:37;;;;;;;15.93;15.33;;;34.20;41.10;;;;;;4974176;28;20455;-74
2022/07/14 16:00:05;;;;;;;14.00;13.20;;;34.10;41.30;;;;;;4974133;28;20876;-74
2022/07/14 16:02:31;;;;;;;14.70;13.90;;;34.20;41.00;;;;;;4973836;28;20817;-74
2022/07/14 16:04:58;;;;;;;14.77;14.03;;;34.20;41.30;;;;;;4973810;28;20850;-74
2022/07/14 16:07:25;;;;;;;14.73;14.03;;;34.10;41.60;;;;;;4973145;28;20846;-74
2022/07/14 16:09:53;;;;;;;14.30;13.73;;;34.00;42.00;;;;;;4974005;28;21009;-74
2022/07/14 16:12:19;;;;;;;15.93;15.10;;;33.80;42.70;;;;;;4973650;28;20487;-74
2022/07/14 16:14:46;;;;;;;14.73;14.03;;;33.50;43.40;;;;;;4973622;28;20834;-75
2022/07/14 16:17:13;;;;;;;15.60;14.60;;;33.10;44.50;;;;;;4973490;28;20934;-75
2022/07/14 16:19:40;;;;;;;15.90;14.60;;;33.00;45.40;;;;;;4973808;28;20863;-75
2022/07/14 16:22:06;;;;;;;14.50;13.63;;;32.90;45.70;;;;;;4973648;28;20455;-75
2022/07/14 16:24:33;;;;;;;16.40;15.60;;;33.00;46.10;;;;;;4973486;28;20460;-75
2022/07/14 16:27:01;;;;;;;15.97;14.97;;;32.80;46.90;;;;;;4973212;28;20824;-75
2022/07/14 16:29:29;;;;;;;16.00;15.10;;;32.70;47.50;;;;;;4973309;28;20511;-76
2022/07/14 16:31:56;;;;;;;14.50;13.83;;;32.80;47.80;;;;;;4973225;28;21012;-74
2022/07/14 16:34:23;;;;;;;15.70;15.00;;;32.70;48.30;;;;;;4973525;28;20463;-74
2022/07/14 16:36:50;;;;;;;15.50;14.60;;;32.50;48.70;;;;;;4973239;28;20448;-73
2022/07/14 16:39:17;;;;;;;15.40;14.80;;;32.40;49.10;;;;;;4973053;28;20476;-75
2022/07/14 16:41:43;;;;;;;17.03;15.90;;;32.40;49.50;;;;;;4973113;28;21012;-74
2022/07/14 16:44:11;;;;;;;16.60;15.70;;;32.30;49.90;;;;;;4973106;28;20474;-74
2022/07/14 16:46:38;;;;;;;14.47;13.67;;;32.30;49.90;;;;;;4973290;28;21239;-74
2022/07/14 16:49:05;;;;;;;14.73;14.10;;;32.20;50.20;;;;;;4973136;28;20831;-74
2022/07/14 16:51:31;;;;;;;16.37;15.37;;;31.90;50.60;;;;;;4973186;28;21348;-74
2022/07/14 16:53:58;;;;;;;16.37;15.50;;;31.80;51.20;;;;;;4973041;28;20451;-75
2022/07/14 16:56:25;;;;;;;16.73;15.53;;;31.70;51.20;;;;;;4973012;28;20468;-74
2022/07/14 16:58:52;;;;;;;15.53;15.00;;;31.70;51.30;;;;;;4973244;28;20537;-74
2022/07/14 17:01:20;;;;;;;15.80;14.47;;;31.70;51.90;;;;;;4972434;28;20452;-74
2022/07/14 17:03:47;;;;;;;15.20;14.30;;;31.50;52.70;;;;;;4972975;28;20481;-74
2022/07/14 17:06:19;;;;;;;15.90;15.00;;;31.50;53.10;;;;;;4972673;28;20462;-74
2022/07/14 17:08:47;;;;;;;16.77;15.90;;;31.40;53.40;;;;;;4971987;28;20458;-74
2022/07/14 17:11:14;;;;;;;16.00;15.30;;;31.30;54.00;;;;;;4972332;28;20864;-74
2022/07/14 17:13:42;;;;;;;14.53;13.77;;;31.40;53.80;;;;;;4972161;28;20455;-74
2022/07/14 17:16:09;;;;;;;15.17;14.40;;;31.40;54.00;;;;;;4972411;28;20464;-75
2022/07/14 17:18:37;;;;;;;15.93;15.13;;;31.50;54.50;;;;;;4971995;28;20589;-74
2022/07/14 17:21:06;;;;;;;15.30;14.50;;;31.50;54.70;;;;;;4972241;28;20466;-75
2022/07/14 17:23:33;;;;;;;15.93;15.07;;;31.40;55.50;;;;;;4972013;28;20511;-74
2022/07/14 17:26:00;;;;;;;15.63;14.93;;;31.40;56.00;;;;;;4972060;28;20927;-74
2022/07/14 17:28:27;;;;;;;16.07;15.17;;;31.40;56.50;;;;;;4972111;28;20833;-74
2022/07/14 17:30:53;;;;;;;14.80;14.00;;;31.30;56.70;;;;;;4972072;28;20939;-74